Time;durP1;ratioP1;P1;durP2;ratioP2;P2;SDS_P1;SDS_P2;PMS_P1;PMS_P2;Temp;Humidity;BMP_temperature;BMP_pressure;BME280_temperature;BME280_humidity;BME280_pressure;Samples;Min_cycle;Max_cycle;Signal;HPM_P1;HPM_P2
2023/03/26 00:00:47;;;;;;;13.40;3.10;;;7.50;99.90;;;;;;5103110;28;20044;-84
2023/03/26 00:03:15;;;;;;;20.88;4.15;;;7.50;99.90;;;;;;5102278;28;20051;-84
2023/03/26 00:05:41;;;;;;;16.90;3.45;;;7.50;99.90;;;;;;5089008;28;20040;-84
2023/03/26 00:08:08;;;;;;;12.45;2.90;;;7.50;99.90;;;;;;5104957;28;20050;-84
2023/03/26 00:10:38;;;;;;;16.67;2.65;;;7.40;99.90;;;;;;5103871;28;20115;-84
2023/03/26 00:13:05;;;;;;;20.08;3.88;;;7.40;99.90;;;;;;5108508;28;20364;-83
2023/03/26 00:15:32;;;;;;;17.90;2.95;;;7.30;99.90;;;;;;5109126;28;20491;-84
2023/03/26 00:17:59;;;;;;;15.60;2.88;;;7.30;99.90;;;;;;5102327;28;20059;-85
2023/03/26 00:20:26;;;;;;;18.77;2.95;;;7.30;99.90;;;;;;5101238;28;20118;-83
2023/03/26 00:22:52;;;;;;;19.42;3.45;;;7.30;99.90;;;;;;5106686;28;20058;-84
2023/03/26 00:25:19;;;;;;;12.98;2.72;;;7.30;99.90;;;;;;5105006;28;20106;-84
2023/03/26 00:27:45;;;;;;;11.63;2.42;;;7.20;99.90;;;;;;5102494;28;20070;-84
2023/03/26 00:30:11;;;;;;;17.50;2.85;;;7.20;99.90;;;;;;5102079;28;20071;-84
2023/03/26 00:32:37;;;;;;;15.02;2.85;;;7.20;99.90;;;;;;5105480;28;20044;-83
2023/03/26 00:35:03;;;;;;;16.65;3.00;;;7.20;99.90;;;;;;5104586;28;20069;-83
2023/03/26 00:37:29;;;;;;;21.95;3.45;;;7.20;99.90;;;;;;5092689;28;20158;-84
2023/03/26 00:39:58;;;;;;;16.73;2.63;;;7.20;99.90;;;;;;5109234;28;20040;-84
2023/03/26 00:42:25;;;;;;;15.35;2.75;;;7.20;99.90;;;;;;5106112;28;20380;-83
2023/03/26 00:44:56;;;;;;;15.27;2.70;;;7.20;99.90;;;;;;5129802;27;20035;-85
2023/03/26 00:47:22;;;;;;;14.18;2.80;;;7.20;99.90;;;;;;5108527;28;20039;-84
2023/03/26 00:49:49;;;;;;;14.82;3.78;;;7.20;99.90;;;;;;5095927;28;20108;-84
2023/03/26 00:52:17;;;;;;;13.90;3.05;;;7.20;99.90;;;;;;5091853;28;20045;-83
2023/03/26 00:54:44;;;;;;;14.52;2.72;;;7.20;99.90;;;;;;5108770;28;20067;-84
2023/03/26 00:57:10;;;;;;;15.23;3.17;;;7.10;99.90;;;;;;5093448;28;20291;-83
2023/03/26 00:59:37;;;;;;;13.10;3.00;;;7.10;99.90;;;;;;5089192;28;20115;-84
2023/03/26 01:02:03;;;;;;;13.77;2.85;;;7.10;99.90;;;;;;5093156;28;20024;-84
2023/03/26 01:04:33;;;;;;;13.65;2.63;;;7.10;99.90;;;;;;5109006;28;20039;-83
2023/03/26 01:07:03;;;;;;;12.43;2.50;;;7.00;99.90;;;;;;5088577;28;20073;-83
2023/03/26 01:09:36;;;;;;;12.60;2.47;;;7.00;99.90;;;;;;5109808;28;20039;-83
2023/03/26 01:12:04;;;;;;;10.65;2.42;;;7.00;99.90;;;;;;5106925;28;20040;-84
2023/03/26 01:14:30;;;;;;;14.75;2.92;;;7.00;99.90;;;;;;5107073;28;20123;-84
2023/03/26 01:16:58;;;;;;;17.52;2.90;;;7.00;99.90;;;;;;5105536;28;20157;-83
2023/03/26 01:19:53;;;;;;;15.35;3.00;;;7.00;99.90;;;;;;5104989;28;20409;-84
2023/03/26 01:22:25;;;;;;;12.27;3.03;;;7.00;99.90;;;;;;5086992;28;20044;-84
2023/03/26 01:24:52;;;;;;;11.73;2.97;;;7.00;99.90;;;;;;5090882;28;20044;-83
2023/03/26 01:27:39;;;;;;;11.68;2.92;;;7.00;99.90;;;;;;5108071;28;20040;-84
2023/03/26 01:30:25;;;;;;;16.70;2.40;;;6.90;99.90;;;;;;5105160;28;20491;-83
2023/03/26 01:32:54;;;;;;;17.00;2.70;;;6.90;99.90;;;;;;5094123;28;20250;-84
2023/03/26 01:35:40;;;;;;;21.48;3.55;;;6.90;99.90;;;;;;5088235;28;20036;-83
2023/03/26 01:38:34;;;;;;;13.27;2.45;;;6.90;99.90;;;;;;5102166;28;20036;-84
2023/03/26 01:41:18;;;;;;;15.75;3.08;;;7.00;99.90;;;;;;5085561;28;20070;-83
2023/03/26 01:43:53;;;;;;;;;;;6.90;99.90;;;;;;5109887;28;20040;-83
2023/03/26 01:46:19;;;;;;;;;;;6.90;99.90;;;;;;5106163;28;20022;-83
2023/03/26 01:48:46;;;;;;;9.60;2.15;;;6.90;99.90;;;;;;5091819;28;19923;-84
2023/03/26 01:51:13;;;;;;;17.17;2.35;;;6.90;99.90;;;;;;5089582;28;20096;-83
2023/03/26 01:53:45;;;;;;;18.23;2.92;;;6.90;99.90;;;;;;5104432;28;20039;-84
2023/03/26 01:56:28;;;;;;;14.10;2.85;;;6.80;99.90;;;;;;5108648;28;20039;-84
2023/03/26 01:59:11;;;;;;;12.88;2.90;;;6.70;99.90;;;;;;5090877;28;20076;-84
2023/03/26 02:02:00;;;;;;;12.00;2.40;;;6.70;99.90;;;;;;5106583;28;20085;-84
2023/03/26 02:04:41;;;;;;;17.63;2.45;;;6.60;99.90;;;;;;5109958;28;20039;-84
2023/03/26 02:07:38;;;;;;;16.55;2.95;;;6.50;99.90;;;;;;5106493;28;20047;-84
2023/03/26 02:10:12;;;;;;;18.85;2.72;;;6.50;99.90;;;;;;5088798;28;20027;-84
2023/03/26 02:12:40;;;;;;;13.63;2.25;;;6.40;99.90;;;;;;5104359;28;20043;-84
2023/03/26 02:15:06;;;;;;;9.68;2.05;;;6.40;99.90;;;;;;5086191;28;20465;-84
2023/03/26 02:17:32;;;;;;;16.60;3.80;;;6.40;99.90;;;;;;5107256;28;20114;-85
2023/03/26 02:19:57;;;;;;;19.80;2.60;;;6.30;99.90;;;;;;5106609;28;20186;-85
2023/03/26 02:22:28;;;;;;;14.35;2.38;;;6.30;99.90;;;;;;5094449;28;20042;-84
2023/03/26 02:24:54;;;;;;;14.43;2.45;;;6.30;99.90;;;;;;5108811;28;20043;-84
2023/03/26 02:27:20;;;;;;;13.98;2.58;;;6.20;99.90;;;;;;5106650;28;20039;-85
2023/03/26 02:29:46;;;;;;;15.32;2.22;;;6.10;99.90;;;;;;5089133;28;20545;-85
2023/03/26 02:32:12;;;;;;;13.50;2.42;;;6.10;99.90;;;;;;5111268;28;20040;-84
2023/03/26 02:34:41;;;;;;;12.57;2.22;;;6.10;99.90;;;;;;5103846;28;20411;-84
2023/03/26 02:37:08;;;;;;;13.35;2.22;;;6.10;99.90;;;;;;5105441;28;20032;-84
2023/03/26 02:39:33;;;;;;;12.63;2.08;;;6.10;99.90;;;;;;5104926;28;20410;-84
2023/03/26 02:41:59;;;;;;;14.07;2.78;;;6.10;99.90;;;;;;5109839;28;20110;-84
2023/03/26 02:44:26;;;;;;;11.32;2.30;;;6.10;99.90;;;;;;5107631;28;20407;-84
2023/03/26 02:46:51;;;;;;;9.45;1.80;;;6.10;99.90;;;;;;5102481;28;20043;-84
2023/03/26 02:49:17;;;;;;;11.98;2.30;;;6.10;99.90;;;;;;5102880;28;20051;-84
2023/03/26 02:51:42;;;;;;;8.07;2.70;;;6.20;99.90;;;;;;5085607;28;20123;-83
2023/03/26 02:54:08;;;;;;;14.35;3.53;;;6.20;99.90;;;;;;5106083;28;20044;-85
2023/03/26 02:56:34;;;;;;;17.25;2.55;;;6.20;99.90;;;;;;5103383;28;20068;-84
2023/03/26 02:59:00;;;;;;;9.70;2.20;;;6.30;99.90;;;;;;5091058;28;20099;-85
2023/03/26 03:01:25;;;;;;;14.55;2.22;;;6.30;99.90;;;;;;5106807;28;20071;-85
2023/03/26 03:03:51;;;;;;;8.52;2.00;;;6.30;99.90;;;;;;5102850;28;20031;-84
2023/03/26 03:06:17;;;;;;;7.15;1.83;;;6.30;99.90;;;;;;5106049;28;20051;-84
2023/03/26 03:08:44;;;;;;;13.25;2.30;;;6.30;99.90;;;;;;5087910;28;20502;-84
2023/03/26 03:11:23;;;;;;;12.77;2.65;;;6.30;99.90;;;;;;5104021;28;20149;-84
2023/03/26 03:13:49;;;;;;;12.48;3.05;;;6.40;99.90;;;;;;5085705;28;20035;-84
2023/03/26 03:16:15;;;;;;;16.73;2.38;;;6.30;99.90;;;;;;5106604;28;20039;-84
2023/03/26 03:18:41;;;;;;;16.98;2.90;;;6.40;99.90;;;;;;5105317;28;20119;-84
2023/03/26 03:21:06;;;;;;;13.57;2.72;;;6.40;99.90;;;;;;5109399;28;20090;-84
2023/03/26 03:23:32;;;;;;;15.13;2.67;;;6.40;99.90;;;;;;5093708;28;20077;-85
2023/03/26 03:25:57;;;;;;;17.15;3.33;;;6.40;99.90;;;;;;5086537;28;20126;-85
2023/03/26 03:28:24;;;;;;;15.00;2.53;;;6.40;99.90;;;;;;5102265;28;20521;-85
2023/03/26 03:30:52;;;;;;;13.95;2.65;;;6.50;99.90;;;;;;5105811;28;20407;-84
2023/03/26 03:33:21;;;;;;;14.98;2.53;;;6.40;99.90;;;;;;5105224;28;20036;-84
2023/03/26 03:35:48;;;;;;;15.23;2.85;;;6.40;99.90;;;;;;5104030;28;20040;-84
2023/03/26 03:38:15;;;;;;;13.50;3.33;;;6.50;99.90;;;;;;5104660;28;20040;-84
2023/03/26 03:40:41;;;;;;;16.83;2.40;;;6.40;99.90;;;;;;5090018;28;20059;-84
2023/03/26 03:43:06;;;;;;;12.85;2.40;;;6.40;99.90;;;;;;5120311;28;20081;-84
2023/03/26 03:45:32;;;;;;;13.82;2.22;;;6.40;99.90;;;;;;5141433;27;20042;-84
2023/03/26 03:47:58;;;;;;;13.55;2.42;;;6.40;99.90;;;;;;5104942;28;20144;-84
2023/03/26 03:50:24;;;;;;;15.05;2.80;;;6.30;99.90;;;;;;5109996;28;20044;-84
2023/03/26 03:52:49;;;;;;;16.92;2.10;;;6.30;99.90;;;;;;5103132;28;20515;-84
2023/03/26 03:55:16;;;;;;;19.45;2.72;;;6.20;99.90;;;;;;5109740;28;20634;-84
2023/03/26 03:57:41;;;;;;;16.27;2.53;;;6.20;99.90;;;;;;5105241;28;20663;-84
2023/03/26 04:00:08;;;;;;;18.02;2.60;;;6.10;99.90;;;;;;5104750;28;20067;-84
2023/03/26 04:02:34;;;;;;;14.73;2.42;;;6.00;99.90;;;;;;5103741;28;20036;-84
2023/03/26 04:05:01;;;;;;;10.23;2.10;;;6.00;99.90;;;;;;5092966;28;20418;-84
2023/03/26 04:07:30;;;;;;;15.45;3.15;;;5.90;99.90;;;;;;5109661;28;20459;-85
2023/03/26 04:09:58;;;;;;;11.85;2.33;;;5.80;99.90;;;;;;5102199;28;20426;-84
2023/03/26 04:12:28;;;;;;;8.82;1.77;;;5.80;99.90;;;;;;5102832;28;20168;-84
2023/03/26 04:14:54;;;;;;;15.50;2.22;;;5.70;99.90;;;;;;5106546;28;20118;-84
2023/03/26 04:17:21;;;;;;;15.00;2.17;;;5.60;99.90;;;;;;5110700;28;20080;-84
2023/03/26 04:19:47;;;;;;;13.27;2.28;;;5.60;99.90;;;;;;5110628;28;20433;-84
2023/03/26 04:22:13;;;;;;;9.75;2.05;;;5.60;99.90;;;;;;5094994;28;20506;-84
2023/03/26 04:24:41;;;;;;;10.77;2.30;;;5.50;99.90;;;;;;5146008;27;20049;-85
2023/03/26 04:27:11;;;;;;;11.95;2.33;;;5.40;99.90;;;;;;5091112;28;20043;-84
2023/03/26 04:29:41;;;;;;;7.78;1.73;;;5.40;99.90;;;;;;5107483;28;20419;-84
2023/03/26 04:32:13;;;;;;;11.20;2.08;;;5.40;99.90;;;;;;5105922;28;20468;-84
2023/03/26 04:34:38;;;;;;;16.58;2.63;;;5.30;99.90;;;;;;5110008;28;20514;-84
2023/03/26 04:37:04;;;;;;;15.98;2.35;;;5.40;99.90;;;;;;5110809;28;20031;-84
2023/03/26 04:39:32;;;;;;;10.65;1.88;;;5.40;99.90;;;;;;5088850;28;20065;-84
2023/03/26 04:41:59;;;;;;;10.98;2.10;;;5.40;99.90;;;;;;5106756;28;20040;-85
2023/03/26 04:44:24;;;;;;;14.10;2.47;;;5.40;99.90;;;;;;5109553;28;20044;-84
2023/03/26 04:46:51;;;;;;;13.48;2.42;;;5.40;99.90;;;;;;5088389;28;20411;-84
2023/03/26 04:49:18;;;;;;;13.43;2.10;;;5.40;99.90;;;;;;5091152;28;20081;-84
2023/03/26 04:51:45;;;;;;;11.77;2.13;;;5.40;99.90;;;;;;5093005;28;20040;-84
2023/03/26 04:54:13;;;;;;;13.32;2.67;;;5.40;99.90;;;;;;5103284;28;20036;-84
2023/03/26 04:56:58;;;;;;;12.90;2.17;;;5.50;99.90;;;;;;5110953;28;20122;-84
2023/03/26 04:59:33;;;;;;;10.70;2.58;;;5.40;99.90;;;;;;5092271;28;20114;-85
2023/03/26 05:01:59;;;;;;;12.10;2.45;;;5.40;99.90;;;;;;5106049;28;20433;-83
2023/03/26 05:04:25;;;;;;;11.65;2.20;;;5.40;99.90;;;;;;5105681;28;20054;-84
2023/03/26 05:06:52;;;;;;;17.67;2.72;;;5.40;99.90;;;;;;5087829;28;20116;-84
2023/03/26 05:09:18;;;;;;;21.05;3.03;;;5.40;99.90;;;;;;5108389;28;20043;-84
2023/03/26 05:11:44;;;;;;;17.63;2.88;;;5.40;99.90;;;;;;5107465;28;20032;-85
2023/03/26 05:14:09;;;;;;;13.13;2.33;;;5.40;99.90;;;;;;5108524;28;20510;-84
2023/03/26 05:16:36;;;;;;;11.65;2.78;;;5.30;99.90;;;;;;5143142;27;20118;-84
2023/03/26 05:19:01;;;;;;;11.10;2.42;;;5.40;99.90;;;;;;5112320;28;20482;-84
2023/03/26 05:21:27;;;;;;;22.27;3.42;;;5.20;99.90;;;;;;5143520;27;20039;-83
2023/03/26 05:23:53;;;;;;;10.90;2.30;;;5.20;99.90;;;;;;5138839;27;20040;-84
2023/03/26 05:26:18;;;;;;;12.73;2.38;;;5.20;99.90;;;;;;5087181;28;20035;-85
2023/03/26 05:28:44;;;;;;;15.35;2.38;;;5.20;99.90;;;;;;5112296;28;20411;-84
2023/03/26 05:31:10;;;;;;;11.82;2.10;;;5.10;99.90;;;;;;5107406;28;20507;-84
2023/03/26 05:33:36;;;;;;;12.45;2.22;;;5.10;99.90;;;;;;5109903;28;20035;-83
2023/03/26 05:36:08;;;;;;;14.73;3.03;;;5.10;99.90;;;;;;5094225;28;20066;-83
2023/03/26 05:38:34;;;;;;;11.23;2.33;;;5.20;99.90;;;;;;5109517;28;20035;-83
2023/03/26 05:41:05;;;;;;;13.93;2.20;;;5.20;99.90;;;;;;5106955;28;20031;-84
2023/03/26 05:43:31;;;;;;;13.05;2.10;;;5.20;99.90;;;;;;5104216;28;20048;-85
2023/03/26 05:45:56;;;;;;;20.02;2.65;;;5.30;99.90;;;;;;5095063;28;20039;-85
2023/03/26 05:48:22;;;;;;;13.82;2.67;;;5.00;99.90;;;;;;5089695;28;20046;-84
2023/03/26 05:50:49;;;;;;;18.80;2.17;;;5.40;99.90;;;;;;5089033;28;20110;-84
2023/03/26 05:53:17;;;;;;;11.02;2.10;;;5.40;99.90;;;;;;5106422;28;20043;-84
2023/03/26 05:55:44;;;;;;;16.33;2.22;;;5.50;99.90;;;;;;5127527;27;20035;-85
2023/03/26 05:58:11;;;;;;;9.63;2.05;;;5.50;99.90;;;;;;5109891;28;20533;-84
2023/03/26 06:00:37;;;;;;;14.55;2.30;;;5.50;99.90;;;;;;5109627;28;20039;-84
2023/03/26 06:03:03;;;;;;;14.00;2.30;;;5.60;99.90;;;;;;5089101;28;20063;-84
2023/03/26 06:05:33;;;;;;;6.93;2.15;;;5.60;99.90;;;;;;5094605;28;20044;-85
2023/03/26 06:07:59;;;;;;;10.25;2.10;;;5.60;99.90;;;;;;5104130;28;20089;-84
2023/03/26 06:10:25;;;;;;;11.20;2.40;;;5.70;99.90;;;;;;5104626;28;20074;-84
2023/03/26 06:12:50;;;;;;;12.13;2.13;;;5.80;99.90;;;;;;5111161;28;20074;-84
2023/03/26 06:15:16;;;;;;;12.68;1.90;;;5.80;99.90;;;;;;5111205;28;20062;-84
2023/03/26 06:17:41;;;;;;;12.63;2.10;;;5.90;99.90;;;;;;5087417;28;20534;-84
2023/03/26 06:20:07;;;;;;;14.52;2.55;;;5.90;99.90;;;;;;5092387;28;20507;-84
2023/03/26 06:22:33;;;;;;;11.30;2.40;;;5.90;99.90;;;;;;5106758;28;20495;-84
2023/03/26 06:24:59;;;;;;;15.32;1.90;;;6.00;99.90;;;;;;5105508;28;20095;-84
2023/03/26 06:27:24;;;;;;;7.85;1.70;;;6.00;99.90;;;;;;5105411;28;20123;-84
2023/03/26 06:29:50;;;;;;;11.48;1.88;;;6.00;99.90;;;;;;5092408;28;20067;-85
2023/03/26 06:32:15;;;;;;;14.82;2.70;;;6.10;99.90;;;;;;5123270;27;20248;-85
2023/03/26 06:34:41;;;;;;;10.32;1.92;;;6.10;99.90;;;;;;5119546;27;20093;-85
2023/03/26 06:37:06;;;;;;;14.18;2.40;;;6.20;99.90;;;;;;5110733;28;20527;-84
2023/03/26 06:39:32;;;;;;;8.30;2.03;;;6.20;99.90;;;;;;5104445;28;20442;-85
2023/03/26 06:41:57;;;;;;;13.52;2.17;;;6.20;99.90;;;;;;5139051;27;20220;-85
2023/03/26 06:44:23;;;;;;;11.68;2.00;;;6.20;99.90;;;;;;5086757;28;20047;-85
2023/03/26 06:46:49;;;;;;;14.55;2.10;;;6.30;99.90;;;;;;5107677;28;20047;-84
2023/03/26 06:49:14;;;;;;;10.48;2.03;;;6.30;99.90;;;;;;5101270;28;20032;-84
2023/03/26 06:51:40;;;;;;;9.90;2.42;;;6.40;99.90;;;;;;5086847;28;20032;-84
2023/03/26 06:54:06;;;;;;;14.68;2.42;;;6.40;99.90;;;;;;5107560;28;20050;-85
2023/03/26 06:56:31;;;;;;;16.02;2.60;;;6.40;99.90;;;;;;5087769;28;20383;-84
2023/03/26 06:58:57;;;;;;;15.02;2.28;;;6.50;99.90;;;;;;5094270;27;20032;-85
2023/03/26 07:01:22;;;;;;;15.07;2.30;;;6.50;99.90;;;;;;5129798;27;20414;-84
2023/03/26 07:03:48;;;;;;;14.95;2.05;;;6.60;99.90;;;;;;5088049;28;20047;-84
2023/03/26 07:06:13;;;;;;;11.75;2.22;;;6.60;99.90;;;;;;5107418;27;20045;-84
2023/03/26 07:08:39;;;;;;;14.52;2.95;;;6.60;99.90;;;;;;5127158;27;20119;-84
2023/03/26 07:11:05;;;;;;;8.75;1.85;;;6.60;99.90;;;;;;5112626;27;20113;-84
2023/03/26 07:13:31;;;;;;;11.05;2.10;;;6.60;99.90;;;;;;5114149;27;20039;-84
2023/03/26 07:15:56;;;;;;;21.02;2.92;;;6.70;99.90;;;;;;5096770;28;20035;-84
2023/03/26 07:18:22;;;;;;;16.13;2.97;;;6.70;99.90;;;;;;5116019;27;20510;-84
2023/03/26 07:20:48;;;;;;;11.48;2.33;;;6.70;99.90;;;;;;5101927;28;20096;-84
2023/03/26 07:23:18;;;;;;;9.68;1.55;;;6.80;99.90;;;;;;5113489;27;20039;-84
2023/03/26 07:25:45;;;;;;;12.68;2.10;;;6.80;99.90;;;;;;5108669;27;20512;-84
2023/03/26 07:28:39;;;;;;;13.40;1.95;;;6.90;99.90;;;;;;5094923;27;20031;-83
2023/03/26 07:31:48;;;;;;;11.93;2.38;;;7.00;99.90;;;;;;5105698;28;20096;-84
2023/03/26 07:34:27;;;;;;;12.70;2.15;;;7.00;99.90;;;;;;5121649;27;20050;-84
2023/03/26 07:37:02;;;;;;;12.38;1.52;;;7.10;99.90;;;;;;5135004;27;20032;-84
2023/03/26 07:39:36;;;;;;;12.60;2.00;;;7.10;99.90;;;;;;5103211;28;20126;-84
2023/03/26 07:42:40;;;;;;;10.73;1.63;;;7.20;99.90;;;;;;5103060;28;20036;-83
2023/03/26 07:45:09;;;;;;;14.65;2.10;;;7.20;99.90;;;;;;5066734;28;20060;-83
2023/03/26 07:47:35;;;;;;;10.65;1.83;;;7.30;99.90;;;;;;5104637;28;20503;-84
2023/03/26 07:50:01;;;;;;;15.23;2.20;;;7.30;99.90;;;;;;5137937;27;20737;-84
2023/03/26 07:52:27;;;;;;;10.35;2.42;;;7.40;99.90;;;;;;5112030;28;20040;-84
2023/03/26 07:54:54;;;;;;;10.80;1.60;;;7.40;99.90;;;;;;5105876;28;20384;-84
2023/03/26 07:57:47;;;;;;;13.43;2.10;;;7.40;99.90;;;;;;5097621;28;20060;-83
2023/03/26 08:00:43;;;;;;;12.73;2.65;;;7.50;99.90;;;;;;5103218;27;20491;-85
2023/03/26 08:03:45;;;;;;;12.07;2.13;;;7.50;99.90;;;;;;5103420;28;20028;-84
2023/03/26 08:06:13;;;;;;;5.75;1.63;;;7.50;99.90;;;;;;5105055;27;20428;-84
2023/03/26 08:08:58;;;;;;;13.82;1.90;;;7.50;99.90;;;;;;5112175;27;20035;-84
2023/03/26 08:11:45;;;;;;;9.15;1.58;;;7.50;99.90;;;;;;5112737;27;20063;-84
2023/03/26 08:14:17;;;;;;;12.68;1.80;;;7.40;99.90;;;;;;5109680;27;20441;-84
2023/03/26 08:16:53;;;;;;;12.15;2.13;;;7.40;99.90;;;;;;5109986;28;20032;-84
2023/03/26 08:19:31;;;;;;;13.48;1.98;;;7.40;99.90;;;;;;5112595;27;20402;-84
2023/03/26 08:22:05;;;;;;;14.10;2.08;;;7.40;99.90;;;;;;5103940;28;20036;-84
2023/03/26 08:24:56;;;;;;;;;;;7.30;99.90;;;;;;5093620;27;20031;-84
2023/03/26 08:27:36;;;;;;;6.07;1.60;;;7.20;99.90;;;;;;5130394;27;20303;-84
2023/03/26 08:30:20;;;;;;;9.68;1.95;;;7.30;99.90;;;;;;5104170;28;20118;-84
2023/03/26 08:32:57;;;;;;;12.70;2.10;;;7.60;99.90;;;;;;5095825;27;20452;-84
2023/03/26 08:35:24;;;;;;;17.48;2.30;;;7.70;99.90;;;;;;5123960;27;20071;-84
2023/03/26 08:37:50;;;;;;;9.20;1.98;;;8.10;99.90;;;;;;5113783;27;20494;-86
2023/03/26 08:40:43;;;;;;;12.32;1.95;;;8.50;99.90;;;;;;5105322;27;20036;-85
2023/03/26 08:44:01;;;;;;;12.82;2.25;;;8.80;99.90;;;;;;5100774;27;20047;-85
2023/03/26 08:46:41;;;;;;;10.85;1.80;;;9.20;99.90;;;;;;5093838;27;20047;-84
2023/03/26 08:49:22;;;;;;;11.60;2.00;;;9.30;99.90;;;;;;5114572;27;20387;-85
2023/03/26 08:52:16;;;;;;;7.75;1.40;;;9.50;99.90;;;;;;5129911;27;20043;-85
2023/03/26 08:55:03;;;;;;;8.30;1.77;;;9.60;99.90;;;;;;5090579;27;20032;-85
2023/03/26 08:58:04;;;;;;;10.90;1.90;;;9.70;99.90;;;;;;5110408;27;20067;-84
2023/03/26 09:00:36;;;;;;;8.98;1.67;;;9.70;99.90;;;;;;5085231;28;20056;-84
2023/03/26 09:03:16;;;;;;;14.18;1.90;;;9.60;99.90;;;;;;5109250;28;20060;-84
2023/03/26 09:06:23;;;;;;;7.60;1.70;;;9.50;99.90;;;;;;5104954;28;20398;-84
2023/03/26 09:09:26;;;;;;;11.60;2.15;;;9.50;99.90;;;;;;5088144;28;20091;-84
2023/03/26 09:12:32;;;;;;;11.10;2.53;;;9.80;99.90;;;;;;5094805;28;20071;-85
2023/03/26 09:15:14;;;;;;;15.40;2.17;;;10.10;99.90;;;;;;5128318;27;20036;-86
2023/03/26 09:17:57;;;;;;;10.10;2.47;;;10.20;99.90;;;;;;5105448;27;20066;-85
2023/03/26 09:21:03;;;;;;;17.20;2.28;;;10.10;99.90;;;;;;5129919;27;20043;-85
2023/03/26 09:23:57;;;;;;;12.85;2.17;;;10.00;99.90;;;;;;5100005;28;20039;-85
2023/03/26 09:26:46;;;;;;;11.30;1.90;;;9.60;99.90;;;;;;5127049;27;20040;-85
2023/03/26 09:29:36;;;;;;;10.85;1.60;;;9.80;99.90;;;;;;5096320;28;20048;-85
2023/03/26 09:32:35;;;;;;;11.73;2.17;;;9.70;99.90;;;;;;5103409;27;20039;-85
2023/03/26 09:35:12;;;;;;;13.95;1.80;;;9.60;99.90;;;;;;5094310;28;20392;-85
2023/03/26 09:38:16;;;;;;;11.32;1.95;;;9.60;99.90;;;;;;5095565;28;20040;-85
2023/03/26 09:40:57;;;;;;;10.95;1.63;;;9.50;99.90;;;;;;5085259;28;20047;-85
2023/03/26 09:43:54;;;;;;;9.55;1.95;;;9.50;99.90;;;;;;5102581;28;20123;-85
2023/03/26 09:46:22;;;;;;;8.95;2.17;;;9.40;99.90;;;;;;5105178;28;20035;-85
2023/03/26 09:49:12;;;;;;;10.15;2.00;;;9.40;99.90;;;;;;5109967;27;20516;-85
2023/03/26 09:52:11;;;;;;;8.30;1.83;;;9.40;99.90;;;;;;5090416;28;20036;-85
2023/03/26 09:54:43;;;;;;;12.73;1.77;;;9.40;99.90;;;;;;5115828;27;20035;-85
2023/03/26 09:57:45;;;;;;;10.15;2.13;;;9.40;99.90;;;;;;5091571;28;20036;-85
2023/03/26 10:00:46;;;;;;;7.47;1.52;;;9.40;99.90;;;;;;5093198;28;20168;-84
2023/03/26 10:03:32;;;;;;;9.27;1.70;;;9.50;99.90;;;;;;5108441;27;20514;-85
2023/03/26 10:06:22;;;;;;;8.95;1.55;;;9.50;99.90;;;;;;5090823;28;20039;-85
2023/03/26 10:09:05;;;;;;;7.55;1.85;;;9.60;99.90;;;;;;5111489;28;20043;-85
2023/03/26 10:11:51;;;;;;;7.95;2.10;;;9.60;99.90;;;;;;5082913;28;20039;-85
2023/03/26 10:14:35;;;;;;;13.38;2.60;;;9.60;99.90;;;;;;5094886;28;20032;-84
2023/03/26 10:17:14;;;;;;;13.88;2.00;;;9.60;99.90;;;;;;5104200;28;20155;-85
2023/03/26 10:19:55;;;;;;;9.30;1.95;;;9.50;99.90;;;;;;5093481;28;20122;-85
2023/03/26 10:22:48;;;;;;;10.90;1.90;;;9.60;99.90;;;;;;5105181;28;20032;-85
2023/03/26 10:25:30;;;;;;;9.90;2.17;;;9.60;99.90;;;;;;5089239;28;20100;-85
2023/03/26 10:28:12;;;;;;;12.55;2.47;;;9.60;99.90;;;;;;5103437;28;20108;-85
2023/03/26 10:30:55;;;;;;;11.95;2.20;;;9.60;99.90;;;;;;5092365;28;20450;-86
2023/03/26 10:33:48;;;;;;;10.90;2.03;;;9.50;99.90;;;;;;5109285;28;20051;-85
2023/03/26 10:36:30;;;;;;;8.43;1.70;;;9.50;99.90;;;;;;5105155;28;20123;-85
2023/03/26 10:39:25;;;;;;;10.38;1.65;;;9.50;99.90;;;;;;5101383;28;20143;-85
2023/03/26 10:42:28;;;;;;;13.20;2.20;;;9.50;99.90;;;;;;5103285;28;20032;-85
2023/03/26 10:45:02;;;;;;;7.93;1.63;;;9.60;99.90;;;;;;5101360;28;20043;-85
2023/03/26 10:47:48;;;;;;;16.88;2.80;;;9.50;99.90;;;;;;5090687;28;20477;-84
2023/03/26 10:50:30;;;;;;;11.43;1.98;;;9.40;99.90;;;;;;5088900;28;20047;-85
2023/03/26 10:53:51;;;;;;;12.70;1.88;;;9.50;99.90;;;;;;5098363;28;20039;-85
2023/03/26 10:56:37;;;;;;;8.65;1.65;;;9.30;99.90;;;;;;5045522;28;20053;-84
2023/03/26 10:59:09;;;;;;;10.77;2.20;;;9.50;99.90;;;;;;5087864;28;20028;-84
2023/03/26 11:01:45;;;;;;;11.45;2.10;;;9.60;99.90;;;;;;5107953;28;20495;-84
2023/03/26 11:04:34;;;;;;;8.57;1.58;;;9.70;99.90;;;;;;5105185;28;20516;-85
2023/03/26 11:07:21;;;;;;;7.53;1.90;;;9.80;99.90;;;;;;5095300;28;20039;-85
2023/03/26 11:09:53;;;;;;;8.38;1.98;;;9.80;99.90;;;;;;5091385;28;20046;-84
2023/03/26 11:12:25;;;;;;;11.98;1.73;;;9.80;99.90;;;;;;5104305;28;20130;-84
2023/03/26 11:15:11;;;;;;;8.40;1.42;;;9.90;99.90;;;;;;5103633;28;20039;-85
2023/03/26 11:18:00;;;;;;;9.82;2.10;;;9.90;99.90;;;;;;5107278;28;20111;-84
2023/03/26 11:20:49;;;;;;;8.93;1.85;;;10.00;99.90;;;;;;5088538;28;20571;-85
2023/03/26 11:23:35;;;;;;;8.43;2.03;;;10.00;99.90;;;;;;5137263;27;20032;-85
2023/03/26 11:26:09;;;;;;;8.45;1.65;;;10.10;99.90;;;;;;5095876;28;20038;-86
2023/03/26 11:29:00;;;;;;;10.70;1.63;;;10.10;99.90;;;;;;5081019;28;20036;-85
2023/03/26 11:31:42;;;;;;;11.20;2.00;;;9.80;99.90;;;;;;5103948;28;20051;-85
2023/03/26 11:34:40;;;;;;;8.70;1.80;;;9.90;99.90;;;;;;5106564;28;20043;-85
2023/03/26 11:37:15;;;;;;;10.88;1.90;;;9.90;99.90;;;;;;5098805;28;20047;-85
2023/03/26 11:39:51;;;;;;;13.05;2.13;;;10.20;99.90;;;;;;5092845;28;20063;-86
2023/03/26 11:42:22;;;;;;;161.48;51.70;;;10.10;99.90;;;;;;5090319;28;20043;-85
2023/03/26 11:45:01;;;;;;;52.42;17.23;;;10.00;99.90;;;;;;5091930;28;20039;-85
2023/03/26 11:47:39;;;;;;;137.57;65.55;;;9.80;99.90;;;;;;5102968;28;20078;-86
2023/03/26 11:50:07;;;;;;;54.25;26.98;;;9.80;99.90;;;;;;5135645;27;20032;-85
2023/03/26 11:52:32;;;;;;;38.78;21.20;;;9.70;99.90;;;;;;5086911;28;20085;-85
2023/03/26 11:54:58;;;;;;;14.98;6.85;;;9.80;99.90;;;;;;5108629;28;20517;-86
2023/03/26 11:57:33;;;;;;;15.32;5.60;;;9.90;99.90;;;;;;5099802;28;20515;-85
2023/03/26 12:00:17;;;;;;;10.95;3.13;;;9.90;99.90;;;;;;5083367;28;20043;-85
2023/03/26 12:02:44;;;;;;;8.07;3.10;;;9.90;99.90;;;;;;5100240;28;20036;-85
2023/03/26 12:05:23;;;;;;;10.90;3.08;;;9.90;99.90;;;;;;5090598;28;20046;-86
2023/03/26 12:07:54;;;;;;;9.32;1.88;;;10.00;99.90;;;;;;5102199;28;20074;-86
2023/03/26 12:10:22;;;;;;;9.73;1.48;;;10.10;99.90;;;;;;5092657;28;20176;-85
2023/03/26 12:12:48;;;;;;;10.35;1.73;;;10.20;99.90;;;;;;5103140;28;20059;-86
2023/03/26 12:15:19;;;;;;;10.52;2.20;;;10.60;99.90;;;;;;5091846;28;20036;-86
2023/03/26 12:17:47;;;;;;;10.40;2.20;;;10.30;99.90;;;;;;5086919;28;20039;-86
2023/03/26 12:20:25;;;;;;;10.73;1.85;;;10.30;99.90;;;;;;5109121;28;20195;-85
2023/03/26 12:22:59;;;;;;;11.48;2.03;;;10.40;99.90;;;;;;5095645;28;20392;-86
2023/03/26 12:25:25;;;;;;;9.98;1.73;;;10.40;99.90;;;;;;5091456;28;20039;-86
2023/03/26 12:28:02;;;;;;;9.10;3.13;;;10.30;99.90;;;;;;5106104;28;20080;-85
2023/03/26 12:30:35;;;;;;;8.82;2.42;;;10.20;99.90;;;;;;5089296;28;20031;-84
2023/03/26 12:33:27;;;;;;;6.57;1.60;;;10.40;99.90;;;;;;5091600;28;20172;-85
2023/03/26 12:35:56;;;;;;;9.35;2.70;;;10.30;99.90;;;;;;5089542;28;20035;-85
2023/03/26 12:38:31;;;;;;;30.75;21.33;;;10.40;99.90;;;;;;5096235;28;20071;-84
2023/03/26 12:41:06;;;;;;;25.27;14.88;;;10.50;99.90;;;;;;5090598;28;20119;-85
2023/03/26 12:43:37;;;;;;;14.13;6.47;;;10.40;99.90;;;;;;5110045;28;20050;-85
2023/03/26 12:46:18;;;;;;;70.45;45.28;;;10.20;99.90;;;;;;5090883;28;20032;-85
2023/03/26 12:48:43;;;;;;;43.03;25.05;;;10.10;99.90;;;;;;5110317;28;20032;-85
2023/03/26 12:51:25;;;;;;;98.95;57.30;;;10.10;99.90;;;;;;5107447;27;20098;-85
2023/03/26 12:54:08;;;;;;;96.90;55.78;;;10.10;99.90;;;;;;5103526;28;20040;-84
2023/03/26 12:56:48;;;;;;;79.57;43.75;;;10.00;99.90;;;;;;5090628;28;20399;-85
2023/03/26 12:59:29;;;;;;;195.95;116.95;;;10.40;99.90;;;;;;5138554;27;20040;-85
2023/03/26 13:02:28;;;;;;;36.25;18.73;;;10.50;99.90;;;;;;5109725;28;20031;-85
2023/03/26 13:05:31;;;;;;;30.40;14.25;;;10.50;99.90;;;;;;5112215;28;20470;-86
2023/03/26 13:08:20;;;;;;;26.80;14.70;;;10.50;99.90;;;;;;5087864;28;20031;-85
2023/03/26 13:10:49;;;;;;;106.47;62.88;;;10.50;99.90;;;;;;5093870;28;20240;-86
2023/03/26 13:13:33;;;;;;;148.13;83.05;;;10.50;99.90;;;;;;5104795;28;20052;-85
2023/03/26 13:16:03;;;;;;;;;;;10.40;99.90;;;;;;5102159;28;20046;-86
2023/03/26 13:18:53;;;;;;;14.27;7.15;;;10.40;99.90;;;;;;5108252;28;19922;-85
2023/03/26 13:21:24;;;;;;;13.95;5.43;;;10.50;99.90;;;;;;5095631;28;20047;-86
2023/03/26 13:24:09;;;;;;;65.63;36.35;;;10.70;99.90;;;;;;5089176;28;20032;-85